createdAt,value
2019-04-07T12:43:32.841Z,7.30
2019-04-07T12:46:01.254Z,7.43
2019-04-07T12:48:44.486Z,7.17
2019-04-07T12:51:12.457Z,7.20
2019-04-07T12:53:43.393Z,6.80
2019-04-07T12:56:14.074Z,6.73
2019-04-07T12:58:59.092Z,6.30
2019-04-07T13:01:33.637Z,7.00
2019-04-07T13:04:01.782Z,6.40
2019-04-07T13:06:37.603Z,6.57
2019-04-07T13:09:07.182Z,6.63
2019-04-07T13:11:38.674Z,6.13
2019-04-07T13:14:10.915Z,5.40
2019-04-07T13:16:39.190Z,4.80
2019-04-07T13:19:09.591Z,4.87
2019-04-07T13:21:37.185Z,6.00
2019-04-07T13:24:10.958Z,4.70
2019-04-07T13:26:37.819Z,5.25
2019-04-07T13:29:08.323Z,4.83
2019-04-07T13:31:36.444Z,5.37
2019-04-07T13:34:13.477Z,5.12
2019-04-07T13:36:41.870Z,5.05
2019-04-07T13:39:19.455Z,5.80
2019-04-07T13:42:04.219Z,4.90
2019-04-07T13:44:50.077Z,4.90
2019-04-07T13:47:23.927Z,4.90
2019-04-07T13:50:00.029Z,4.90
2019-04-07T13:52:34.344Z,4.77
2019-04-07T13:55:07.517Z,4.90
2019-04-07T13:57:57.701Z,4.40
2019-04-07T14:00:26.329Z,3.93
2019-04-07T14:03:00.329Z,3.97
2019-04-07T14:05:44.818Z,3.87
2019-04-07T14:08:31.015Z,3.93
2019-04-07T14:11:02.525Z,3.60
2019-04-07T14:13:31.126Z,3.87
2019-04-07T14:16:02.921Z,4.40
2019-04-07T14:18:36.755Z,4.50
2019-04-07T14:21:07.715Z,4.10
2019-04-07T14:23:35.573Z,4.50
2019-04-07T14:26:06.747Z,4.67
2019-04-07T14:28:34.674Z,3.97
2019-04-07T14:31:11.032Z,5.03
2019-04-07T14:33:55.649Z,4.67
2019-04-07T14:36:32.829Z,4.67
2019-04-07T14:39:06.634Z,4.60
2019-04-07T14:42:00.957Z,4.63
2019-04-07T14:44:41.204Z,4.60
2019-04-07T14:47:14.985Z,4.60
2019-04-07T14:49:59.529Z,4.47
2019-04-07T14:52:39.417Z,7.07
2019-04-07T14:55:07.583Z,4.80
2019-04-07T14:57:41.663Z,9.33
2019-04-07T15:00:10.890Z,13.67
2019-04-07T15:02:37.155Z,13.80
2019-04-07T15:05:25.216Z,12.13
2019-04-07T15:08:00.060Z,11.90
2019-04-07T15:10:27.960Z,10.70
2019-04-07T15:13:05.325Z,11.60
2019-04-07T15:15:32.399Z,9.97
2019-04-07T15:17:58.760Z,10.17
2019-04-07T15:20:25.096Z,10.37
2019-04-07T15:22:51.726Z,10.50
2019-04-07T15:25:18.386Z,10.87
2019-04-07T15:27:44.567Z,11.57
2019-04-07T15:30:15.331Z,10.33
2019-04-07T15:32:39.449Z,10.47
2019-04-07T15:35:06.302Z,10.67
2019-04-07T15:37:32.546Z,10.63
2019-04-07T15:40:00.945Z,9.93
2019-04-07T15:42:35.871Z,10.37
2019-04-07T15:44:54.073Z,10.40
2019-04-07T15:47:21.098Z,10.40
2019-04-07T15:49:48.466Z,10.30
2019-04-07T15:52:14.511Z,9.80
2019-04-07T15:54:40.413Z,10.13
2019-04-07T15:57:06.312Z,9.87
2019-04-07T15:59:33.043Z,10.53
2019-04-07T16:01:58.947Z,9.93
2019-04-07T16:04:28.263Z,10.10
2019-04-07T16:06:52.862Z,10.27
2019-04-07T16:09:33.257Z,10.57
2019-04-07T16:11:49.227Z,10.67
2019-04-07T16:14:15.064Z,10.73
2019-04-07T16:16:42.626Z,10.77
2019-04-07T16:19:11.313Z,11.73
2019-04-07T16:21:39.333Z,11.50
2019-04-07T16:24:06.256Z,12.07
2019-04-07T16:26:35.820Z,11.80
2019-04-07T16:29:01.195Z,12.10
2019-04-07T16:31:27.423Z,11.80
2019-04-07T16:33:54.103Z,11.03
2019-04-07T16:36:24.557Z,15.83
2019-04-07T16:38:48.648Z,10.67
2019-04-07T16:41:15.039Z,10.57
2019-04-07T16:43:41.975Z,10.33
2019-04-07T16:46:08.857Z,10.87
2019-04-07T16:48:38.571Z,11.47
2019-04-07T16:51:03.330Z,11.77
2019-04-07T16:53:30.950Z,10.83
2019-04-07T16:55:57.542Z,12.03
2019-04-07T16:58:24.337Z,12.27
2019-04-07T17:00:50.692Z,14.17
2019-04-07T17:03:17.308Z,14.67
2019-04-07T17:05:43.320Z,14.53
2019-04-07T17:08:09.359Z,15.03
2019-04-07T17:10:35.482Z,14.13
2019-04-07T17:13:09.242Z,14.37
2019-04-07T17:15:29.615Z,14.13
2019-04-07T17:17:55.903Z,14.60
2019-04-07T17:20:22.966Z,14.20
2019-04-07T17:22:49.923Z,13.97
2019-04-07T17:25:15.998Z,13.53
2019-04-07T17:27:42.542Z,14.67
2019-04-07T17:30:13.602Z,14.20
2019-04-07T17:32:40.326Z,14.10
2019-04-07T17:35:09.372Z,13.47
2019-04-07T17:37:36.294Z,12.63
2019-04-07T17:40:11.358Z,13.17
2019-04-07T17:42:35.488Z,13.23
2019-04-07T17:45:05.945Z,13.77
2019-04-07T17:47:51.521Z,13.50
2019-04-07T17:50:36.902Z,13.97
2019-04-07T17:53:11.665Z,13.03
2019-04-07T17:55:57.252Z,13.37
2019-04-07T17:58:42.503Z,16.77
2019-04-07T18:01:13.883Z,16.83
2019-04-07T18:04:00.656Z,18.13
2019-04-07T18:06:34.607Z,16.83
2019-04-07T18:09:21.379Z,18.30
2019-04-07T18:12:11.639Z,18.90
2019-04-07T18:14:56.682Z,19.47
2019-04-07T18:17:38.022Z,20.37
2019-04-07T18:20:10.784Z,20.97
2019-04-07T18:22:51.654Z,20.63
2019-04-07T18:25:24.003Z,21.23
2019-04-07T18:27:53.286Z,21.10
2019-04-07T18:30:38.507Z,20.57
2019-04-07T18:33:06.635Z,20.37
2019-04-07T18:35:34.779Z,20.63
2019-04-07T18:38:15.012Z,21.47
2019-04-07T18:41:00.999Z,22.17
2019-04-07T18:43:30.120Z,23.03
2019-04-07T18:46:01.096Z,24.37
2019-04-07T18:48:29.026Z,24.67
2019-04-07T18:51:03.062Z,25.47
2019-04-07T18:53:48.560Z,25.20
2019-04-07T18:56:22.726Z,22.30
2019-04-07T18:58:53.208Z,19.20
2019-04-07T19:01:33.140Z,17.57
2019-04-07T19:04:01.161Z,16.67
2019-04-07T19:06:32.014Z,16.50
2019-04-07T19:09:02.545Z,16.87
2019-04-07T19:11:36.302Z,18.10
2019-04-07T19:14:24.528Z,16.97
2019-04-07T19:16:34.200Z,16.67
2019-04-07T19:19:19.265Z,16.77
2019-04-07T19:21:59.345Z,18.67
2019-04-07T19:24:41.632Z,21.73
2019-04-07T19:27:17.470Z,23.53
2019-04-07T19:29:45.888Z,23.47
2019-04-07T19:32:23.520Z,24.07
2019-04-07T19:35:02.655Z,24.50
2019-04-07T19:37:40.103Z,24.50
2019-04-07T19:40:08.313Z,22.13
2019-04-07T19:42:52.070Z,20.17
2019-04-07T19:45:22.790Z,19.80
2019-04-07T19:48:09.050Z,20.53
2019-04-07T19:50:37.028Z,21.27
2019-04-07T19:53:26.397Z,23.00
2019-04-07T19:56:08.719Z,23.83
2019-04-07T19:58:55.680Z,23.30
2019-04-07T20:01:35.790Z,24.90
2019-04-07T20:04:10.990Z,24.53
2019-04-07T20:06:55.455Z,24.47
2019-04-07T20:09:44.124Z,25.20
2019-04-07T20:12:08.586Z,23.90
2019-04-07T20:15:01.460Z,23.43
2019-04-07T20:17:31.001Z,25.17
2019-04-07T20:20:08.802Z,23.67
2019-04-07T20:22:49.422Z,25.57
2019-04-07T20:25:29.277Z,24.27
2019-04-07T20:27:59.343Z,23.87
2019-04-07T20:30:39.610Z,24.13
2019-04-07T20:33:13.451Z,24.53
2019-04-07T20:35:50.774Z,23.57
2019-04-07T20:38:19.250Z,23.07
2019-04-07T20:40:47.864Z,23.57
2019-04-07T20:43:21.729Z,23.30
2019-04-07T20:45:50.060Z,24.70
2019-04-07T20:48:23.923Z,23.87
2019-04-07T20:50:52.900Z,25.53
2019-04-07T20:53:33.693Z,37.70
2019-04-07T20:56:14.467Z,23.77
2019-04-07T20:58:49.601Z,23.27
2019-04-07T21:01:16.635Z,23.50
2019-04-07T21:03:47.553Z,24.57
2019-04-07T21:06:29.925Z,24.20
2019-04-07T21:09:01.459Z,24.80
2019-04-07T21:11:42.821Z,24.23
2019-04-07T21:14:15.523Z,25.50
2019-04-07T21:16:57.891Z,25.80
2019-04-07T21:19:42.093Z,26.97
2019-04-07T21:22:18.953Z,27.07
2019-04-07T21:24:58.866Z,25.37
2019-04-07T21:27:34.814Z,26.10
2019-04-07T21:30:08.667Z,24.87
2019-04-07T21:32:39.885Z,25.97
2019-04-07T21:35:08.685Z,25.53
2019-04-07T21:37:36.492Z,24.90
2019-04-07T21:40:08.692Z,24.07
2019-04-07T21:42:54.174Z,25.77
2019-04-07T21:45:39.889Z,24.07
2019-04-07T21:48:11.839Z,24.63
2019-04-07T21:50:48.566Z,21.93
2019-04-07T21:53:34.707Z,22.03
2019-04-07T21:56:11.343Z,21.17
2019-04-07T21:58:38.402Z,21.43
2019-04-07T22:01:21.142Z,21.70
2019-04-07T22:03:55.056Z,22.50
2019-04-07T22:06:23.084Z,22.67
2019-04-07T22:08:58.053Z,22.10
2019-04-07T22:11:28.114Z,21.50
2019-04-07T22:13:53.387Z,21.93
2019-04-07T22:16:22.098Z,22.07
2019-04-07T22:18:47.149Z,21.87
2019-04-07T22:21:13.801Z,21.60
2019-04-07T22:23:40.172Z,21.63
2019-04-07T22:26:09.511Z,20.63
2019-04-07T22:28:34.131Z,19.90
2019-04-07T22:31:00.045Z,20.00
2019-04-07T22:33:29.713Z,21.83
2019-04-07T22:35:53.887Z,20.80
2019-04-07T22:38:23.107Z,20.97
2019-04-07T22:40:47.736Z,20.97
2019-04-07T22:43:16.670Z,21.47
2019-04-07T22:45:52.756Z,21.97
2019-04-07T22:48:09.980Z,22.30
2019-04-07T22:50:38.228Z,21.20
2019-04-07T22:53:03.855Z,20.17
2019-04-07T22:55:29.686Z,20.40
2019-04-07T22:57:55.789Z,20.17
2019-04-07T23:00:25.397Z,20.20
2019-04-07T23:02:52.045Z,19.60
2019-04-07T23:05:19.083Z,19.30
2019-04-07T23:07:45.929Z,19.17
2019-04-07T23:10:12.238Z,18.27
2019-04-07T23:12:38.222Z,19.13
2019-04-07T23:15:05.744Z,19.03
2019-04-07T23:17:32.229Z,19.60
2019-04-07T23:19:58.860Z,18.20
2019-04-07T23:22:25.633Z,19.47
2019-04-07T23:24:51.785Z,18.90
2019-04-07T23:27:18.172Z,19.23
2019-04-07T23:29:44.389Z,19.97
2019-04-07T23:32:10.506Z,19.40
2019-04-07T23:34:36.348Z,19.40
2019-04-07T23:37:03.640Z,19.13
2019-04-07T23:39:29.658Z,20.63
2019-04-07T23:41:55.565Z,19.33
2019-04-07T23:44:21.512Z,19.03
2019-04-07T23:46:47.715Z,20.27
2019-04-07T23:49:13.727Z,19.20
2019-04-07T23:51:39.673Z,19.93
2019-04-07T23:54:09.281Z,18.20
2019-04-07T23:56:35.834Z,19.00
2019-04-07T23:59:02.585Z,23.23
